sensor_id;sensor_type;location;lat;lon;timestamp;temperature;humidity
32787;DHT22;19139;49.372;8.580;2023-04-25T00:01:36;21.40;80.00
32787;DHT22;19139;49.372;8.580;2023-04-25T00:04:04;21.40;80.00
32787;DHT22;19139;49.372;8.580;2023-04-25T00:06:37;21.40;80.00
32787;DHT22;19139;49.372;8.580;2023-04-25T00:09:08;21.40;80.00
32787;DHT22;19139;49.372;8.580;2023-04-25T00:11:41;21.40;80.00
32787;DHT22;19139;49.372;8.580;2023-04-25T00:14:12;21.40;80.10
32787;DHT22;19139;49.372;8.580;2023-04-25T00:16:39;21.40;80.00
32787;DHT22;19139;49.372;8.580;2023-04-25T00:19:07;21.40;80.00
32787;DHT22;19139;49.372;8.580;2023-04-25T00:21:36;21.40;80.10
32787;DHT22;19139;49.372;8.580;2023-04-25T00:24:04;21.40;80.10
32787;DHT22;19139;49.372;8.580;2023-04-25T00:26:31;21.40;80.10
32787;DHT22;19139;49.372;8.580;2023-04-25T00:28:57;21.40;80.00
32787;DHT22;19139;49.372;8.580;2023-04-25T00:31:24;21.40;80.10
32787;DHT22;19139;49.372;8.580;2023-04-25T00:33:51;21.40;80.10
32787;DHT22;19139;49.372;8.580;2023-04-25T00:36:18;21.40;80.10
32787;DHT22;19139;49.372;8.580;2023-04-25T00:38:44;21.40;80.00
32787;DHT22;19139;49.372;8.580;2023-04-25T00:41:11;21.40;80.10
32787;DHT22;19139;49.372;8.580;2023-04-25T00:43:39;21.40;80.10
32787;DHT22;19139;49.372;8.580;2023-04-25T00:46:06;21.40;80.90
32787;DHT22;19139;49.372;8.580;2023-04-25T00:48:33;21.40;80.10
32787;DHT22;19139;49.372;8.580;2023-04-25T00:51:00;21.40;80.10
32787;DHT22;19139;49.372;8.580;2023-04-25T00:53:28;21.40;80.10
32787;DHT22;19139;49.372;8.580;2023-04-25T00:55:54;21.40;80.10
32787;DHT22;19139;49.372;8.580;2023-04-25T00:58:22;21.40;80.10
32787;DHT22;19139;49.372;8.580;2023-04-25T01:00:55;21.40;80.10
32787;DHT22;19139;49.372;8.580;2023-04-25T01:03:22;21.40;80.10
32787;DHT22;19139;49.372;8.580;2023-04-25T01:05:54;21.40;80.10
32787;DHT22;19139;49.372;8.580;2023-04-25T01:08:24;21.40;80.10
32787;DHT22;19139;49.372;8.580;2023-04-25T01:10:51;21.40;80.10
32787;DHT22;19139;49.372;8.580;2023-04-25T01:13:18;21.40;80.10
32787;DHT22;19139;49.372;8.580;2023-04-25T01:15:45;21.30;80.10
32787;DHT22;19139;49.372;8.580;2023-04-25T01:18:18;21.40;80.10
32787;DHT22;19139;49.372;8.580;2023-04-25T01:20:46;21.40;80.20
32787;DHT22;19139;49.372;8.580;2023-04-25T01:23:19;21.30;80.10
32787;DHT22;19139;49.372;8.580;2023-04-25T01:25:47;21.30;80.10
32787;DHT22;19139;49.372;8.580;2023-04-25T01:28:14;21.40;80.10
32787;DHT22;19139;49.372;8.580;2023-04-25T01:30:41;21.40;80.10
32787;DHT22;19139;49.372;8.580;2023-04-25T01:33:09;21.30;80.10
32787;DHT22;19139;49.372;8.580;2023-04-25T01:35:36;21.40;80.10
32787;DHT22;19139;49.372;8.580;2023-04-25T01:38:03;21.30;80.10
32787;DHT22;19139;49.372;8.580;2023-04-25T01:40:37;21.30;80.10
32787;DHT22;19139;49.372;8.580;2023-04-25T01:43:05;21.40;80.20
32787;DHT22;19139;49.372;8.580;2023-04-25T01:45:32;21.30;80.10
32787;DHT22;19139;49.372;8.580;2023-04-25T01:47:59;21.30;80.10
32787;DHT22;19139;49.372;8.580;2023-04-25T01:50:26;21.30;80.10
32787;DHT22;19139;49.372;8.580;2023-04-25T01:52:53;21.30;80.10
32787;DHT22;19139;49.372;8.580;2023-04-25T01:55:25;21.30;80.10
32787;DHT22;19139;49.372;8.580;2023-04-25T01:57:52;21.40;80.20
32787;DHT22;19139;49.372;8.580;2023-04-25T02:00:19;21.30;80.10
32787;DHT22;19139;49.372;8.580;2023-04-25T02:02:52;21.30;80.10
32787;DHT22;19139;49.372;8.580;2023-04-25T02:05:24;21.30;80.10
32787;DHT22;19139;49.372;8.580;2023-04-25T02:07:51;21.30;80.10
32787;DHT22;19139;49.372;8.580;2023-04-25T02:10:17;21.30;80.10
32787;DHT22;19139;49.372;8.580;2023-04-25T02:12:49;21.30;80.10
32787;DHT22;19139;49.372;8.580;2023-04-25T02:15:20;21.30;80.10
32787;DHT22;19139;49.372;8.580;2023-04-25T02:17:47;21.40;80.20
32787;DHT22;19139;49.372;8.580;2023-04-25T02:20:14;21.30;80.10
32787;DHT22;19139;49.372;8.580;2023-04-25T02:22:42;21.30;80.10
32787;DHT22;19139;49.372;8.580;2023-04-25T02:25:09;21.30;80.10
32787;DHT22;19139;49.372;8.580;2023-04-25T02:27:36;21.30;80.10
32787;DHT22;19139;49.372;8.580;2023-04-25T02:30:04;21.30;80.10
32787;DHT22;19139;49.372;8.580;2023-04-25T02:32:36;21.30;80.10
32787;DHT22;19139;49.372;8.580;2023-04-25T02:35:03;21.30;80.20
32787;DHT22;19139;49.372;8.580;2023-04-25T02:37:31;21.30;80.10
32787;DHT22;19139;49.372;8.580;2023-04-25T02:39:58;21.30;80.10
32787;DHT22;19139;49.372;8.580;2023-04-25T02:42:26;21.30;80.10
32787;DHT22;19139;49.372;8.580;2023-04-25T02:44:53;21.30;80.10
32787;DHT22;19139;49.372;8.580;2023-04-25T02:47:20;21.30;80.10
32787;DHT22;19139;49.372;8.580;2023-04-25T02:49:47;21.30;80.10
32787;DHT22;19139;49.372;8.580;2023-04-25T02:52:13;21.30;80.10
32787;DHT22;19139;49.372;8.580;2023-04-25T02:54:40;21.30;80.20
32787;DHT22;19139;49.372;8.580;2023-04-25T02:57:12;21.30;80.20
32787;DHT22;19139;49.372;8.580;2023-04-25T02:59:43;21.30;80.20
32787;DHT22;19139;49.372;8.580;2023-04-25T03:02:10;21.30;80.10
32787;DHT22;19139;49.372;8.580;2023-04-25T03:04:37;21.30;80.20
32787;DHT22;19139;49.372;8.580;2023-04-25T03:07:04;21.30;80.10
32787;DHT22;19139;49.372;8.580;2023-04-25T03:09:30;21.30;80.20
32787;DHT22;19139;49.372;8.580;2023-04-25T03:11:57;21.30;80.10
32787;DHT22;19139;49.372;8.580;2023-04-25T03:14:23;21.30;80.20
32787;DHT22;19139;49.372;8.580;2023-04-25T03:16:50;21.30;80.10
32787;DHT22;19139;49.372;8.580;2023-04-25T03:19:21;21.30;80.20
32787;DHT22;19139;49.372;8.580;2023-04-25T03:21:48;21.30;80.10
32787;DHT22;19139;49.372;8.580;2023-04-25T03:24:15;21.30;80.10
32787;DHT22;19139;49.372;8.580;2023-04-25T03:26:41;21.30;80.10
32787;DHT22;19139;49.372;8.580;2023-04-25T03:29:13;21.20;80.10
32787;DHT22;19139;49.372;8.580;2023-04-25T03:31:40;21.30;80.20
32787;DHT22;19139;49.372;8.580;2023-04-25T03:34:11;21.30;80.10
32787;DHT22;19139;49.372;8.580;2023-04-25T03:36:40;21.30;80.20
32787;DHT22;19139;49.372;8.580;2023-04-25T03:39:07;21.30;80.20
32787;DHT22;19139;49.372;8.580;2023-04-25T03:41:34;21.20;80.10
32787;DHT22;19139;49.372;8.580;2023-04-25T03:44:00;21.30;80.10
32787;DHT22;19139;49.372;8.580;2023-04-25T03:46:32;21.20;80.10
32787;DHT22;19139;49.372;8.580;2023-04-25T03:49:03;21.30;80.20
32787;DHT22;19139;49.372;8.580;2023-04-25T03:51:35;21.30;80.20
32787;DHT22;19139;49.372;8.580;2023-04-25T03:54:06;21.20;80.10
32787;DHT22;19139;49.372;8.580;2023-04-25T03:56:33;21.30;80.20
32787;DHT22;19139;49.372;8.580;2023-04-25T03:59:06;21.20;80.10
32787;DHT22;19139;49.372;8.580;2023-04-25T04:01:32;21.20;80.10
32787;DHT22;19139;49.372;8.580;2023-04-25T04:04:04;21.30;80.20
32787;DHT22;19139;49.372;8.580;2023-04-25T04:06:31;21.20;80.10
32787;DHT22;19139;49.372;8.580;2023-04-25T04:08:58;21.20;80.10
32787;DHT22;19139;49.372;8.580;2023-04-25T04:11:25;21.20;80.20
32787;DHT22;19139;49.372;8.580;2023-04-25T04:13:51;21.20;80.10
32787;DHT22;19139;49.372;8.580;2023-04-25T04:16:18;21.20;80.10
32787;DHT22;19139;49.372;8.580;2023-04-25T04:18:46;21.20;80.10
32787;DHT22;19139;49.372;8.580;2023-04-25T04:21:12;21.20;80.20
32787;DHT22;19139;49.372;8.580;2023-04-25T04:23:44;21.20;80.10
32787;DHT22;19139;49.372;8.580;2023-04-25T04:26:11;21.20;80.10
32787;DHT22;19139;49.372;8.580;2023-04-25T04:28:44;21.20;80.20
32787;DHT22;19139;49.372;8.580;2023-04-25T04:31:11;21.20;80.20
32787;DHT22;19139;49.372;8.580;2023-04-25T04:33:38;21.20;80.10
32787;DHT22;19139;49.372;8.580;2023-04-25T04:36:05;21.20;80.20
32787;DHT22;19139;49.372;8.580;2023-04-25T04:38:34;21.20;80.10
32787;DHT22;19139;49.372;8.580;2023-04-25T04:41:00;21.20;80.10
32787;DHT22;19139;49.372;8.580;2023-04-25T04:43:27;21.20;80.10
32787;DHT22;19139;49.372;8.580;2023-04-25T04:45:55;21.20;80.90
32787;DHT22;19139;49.372;8.580;2023-04-25T04:48:25;21.20;80.20
32787;DHT22;19139;49.372;8.580;2023-04-25T04:50:51;21.20;80.20
32787;DHT22;19139;49.372;8.580;2023-04-25T04:53:23;21.20;80.20
32787;DHT22;19139;49.372;8.580;2023-04-25T04:55:54;21.20;80.20
32787;DHT22;19139;49.372;8.580;2023-04-25T04:58:26;21.20;80.20
32787;DHT22;19139;49.372;8.580;2023-04-25T05:01:00;21.20;80.20
32787;DHT22;19139;49.372;8.580;2023-04-25T05:03:32;21.20;80.20
32787;DHT22;19139;49.372;8.580;2023-04-25T05:05:59;21.20;80.20
32787;DHT22;19139;49.372;8.580;2023-04-25T05:08:25;21.20;80.60
32787;DHT22;19139;49.372;8.580;2023-04-25T05:10:52;21.20;80.10
32787;DHT22;19139;49.372;8.580;2023-04-25T05:13:24;21.20;80.20
32787;DHT22;19139;49.372;8.580;2023-04-25T05:15:50;21.20;80.20
32787;DHT22;19139;49.372;8.580;2023-04-25T05:18:17;21.20;80.20
32787;DHT22;19139;49.372;8.580;2023-04-25T05:20:44;21.20;80.20
32787;DHT22;19139;49.372;8.580;2023-04-25T05:23:10;21.20;80.20
32787;DHT22;19139;49.372;8.580;2023-04-25T05:25:37;21.20;80.20
32787;DHT22;19139;49.372;8.580;2023-04-25T05:28:04;21.20;80.20
32787;DHT22;19139;49.372;8.580;2023-04-25T05:30:31;21.20;80.20
32787;DHT22;19139;49.372;8.580;2023-04-25T05:32:58;21.20;80.20
32787;DHT22;19139;49.372;8.580;2023-04-25T05:35:25;21.20;80.20
32787;DHT22;19139;49.372;8.580;2023-04-25T05:37:52;21.20;80.20
32787;DHT22;19139;49.372;8.580;2023-04-25T05:40:19;21.10;80.20
32787;DHT22;19139;49.372;8.580;2023-04-25T05:42:45;21.10;80.20
32787;DHT22;19139;49.372;8.580;2023-04-25T05:45:12;21.10;80.10
32787;DHT22;19139;49.372;8.580;2023-04-25T05:47:44;21.20;80.30
32787;DHT22;19139;49.372;8.580;2023-04-25T05:50:15;21.20;80.30
32787;DHT22;19139;49.372;8.580;2023-04-25T05:52:47;21.20;80.20
32787;DHT22;19139;49.372;8.580;2023-04-25T05:55:14;21.20;80.20
32787;DHT22;19139;49.372;8.580;2023-04-25T05:57:41;21.20;80.20
32787;DHT22;19139;49.372;8.580;2023-04-25T06:00:09;21.10;80.10
32787;DHT22;19139;49.372;8.580;2023-04-25T06:02:36;21.10;80.20
32787;DHT22;19139;49.372;8.580;2023-04-25T06:05:03;21.20;80.20
32787;DHT22;19139;49.372;8.580;2023-04-25T06:07:30;21.10;80.10
32787;DHT22;19139;49.372;8.580;2023-04-25T06:10:02;21.20;80.20
32787;DHT22;19139;49.372;8.580;2023-04-25T06:12:35;21.10;80.10
32787;DHT22;19139;49.372;8.580;2023-04-25T06:15:07;21.10;80.10
32787;DHT22;19139;49.372;8.580;2023-04-25T06:17:38;21.10;80.10
32787;DHT22;19139;49.372;8.580;2023-04-25T06:20:10;21.10;80.20
32787;DHT22;19139;49.372;8.580;2023-04-25T06:22:41;21.10;80.10
32787;DHT22;19139;49.372;8.580;2023-04-25T06:25:08;21.10;80.10
32787;DHT22;19139;49.372;8.580;2023-04-25T06:27:40;21.10;80.10
32787;DHT22;19139;49.372;8.580;2023-04-25T06:30:11;21.10;80.10
32787;DHT22;19139;49.372;8.580;2023-04-25T06:32:43;21.10;80.10
32787;DHT22;19139;49.372;8.580;2023-04-25T06:35:10;21.10;80.20
32787;DHT22;19139;49.372;8.580;2023-04-25T06:37:41;21.10;80.20
32787;DHT22;19139;49.372;8.580;2023-04-25T06:40:13;21.10;80.10
32787;DHT22;19139;49.372;8.580;2023-04-25T06:42:44;21.10;80.10
32787;DHT22;19139;49.372;8.580;2023-04-25T06:45:11;21.10;80.10
32787;DHT22;19139;49.372;8.580;2023-04-25T06:47:42;21.10;80.10
32787;DHT22;19139;49.372;8.580;2023-04-25T06:50:09;21.10;80.10
32787;DHT22;19139;49.372;8.580;2023-04-25T06:52:37;21.20;80.10
32787;DHT22;19139;49.372;8.580;2023-04-25T06:55:03;21.10;80.10
32787;DHT22;19139;49.372;8.580;2023-04-25T06:57:31;21.10;80.10
32787;DHT22;19139;49.372;8.580;2023-04-25T06:59:58;21.20;80.10
32787;DHT22;19139;49.372;8.580;2023-04-25T07:02:27;21.10;80.10
32787;DHT22;19139;49.372;8.580;2023-04-25T07:04:54;21.10;80.10
32787;DHT22;19139;49.372;8.580;2023-04-25T07:07:26;21.10;80.10
32787;DHT22;19139;49.372;8.580;2023-04-25T07:09:53;21.20;80.10
32787;DHT22;19139;49.372;8.580;2023-04-25T07:12:19;21.20;80.90
32787;DHT22;19139;49.372;8.580;2023-04-25T07:14:51;21.20;80.10
32787;DHT22;19139;49.372;8.580;2023-04-25T07:17:22;21.10;80.10
32787;DHT22;19139;49.372;8.580;2023-04-25T07:19:54;21.20;80.10
32787;DHT22;19139;49.372;8.580;2023-04-25T07:22:20;21.10;80.90
32787;DHT22;19139;49.372;8.580;2023-04-25T07:24:47;21.20;80.10
32787;DHT22;19139;49.372;8.580;2023-04-25T07:27:15;21.10;80.10
32787;DHT22;19139;49.372;8.580;2023-04-25T07:29:46;21.10;80.10
32787;DHT22;19139;49.372;8.580;2023-04-25T07:32:18;21.10;80.10
32787;DHT22;19139;49.372;8.580;2023-04-25T07:34:49;21.10;80.10
32787;DHT22;19139;49.372;8.580;2023-04-25T07:37:23;21.10;80.10
32787;DHT22;19139;49.372;8.580;2023-04-25T07:39:49;21.10;80.10
32787;DHT22;19139;49.372;8.580;2023-04-25T07:42:16;21.20;80.20
32787;DHT22;19139;49.372;8.580;2023-04-25T07:44:42;21.10;80.10
32787;DHT22;19139;49.372;8.580;2023-04-25T07:47:14;21.10;80.10
32787;DHT22;19139;49.372;8.580;2023-04-25T07:49:46;21.10;80.10
32787;DHT22;19139;49.372;8.580;2023-04-25T07:52:18;21.10;80.10
32787;DHT22;19139;49.372;8.580;2023-04-25T07:54:49;21.10;80.10
32787;DHT22;19139;49.372;8.580;2023-04-25T07:57:21;21.10;80.10
32787;DHT22;19139;49.372;8.580;2023-04-25T07:59:47;21.10;80.20
32787;DHT22;19139;49.372;8.580;2023-04-25T08:02:14;21.10;80.90
32787;DHT22;19139;49.372;8.580;2023-04-25T08:04:41;21.10;80.10
32787;DHT22;19139;49.372;8.580;2023-04-25T08:07:07;21.10;80.10
32787;DHT22;19139;49.372;8.580;2023-04-25T08:09:34;21.10;80.90
32787;DHT22;19139;49.372;8.580;2023-04-25T08:12:07;21.10;80.20
32787;DHT22;19139;49.372;8.580;2023-04-25T08:14:39;21.10;80.10
32787;DHT22;19139;49.372;8.580;2023-04-25T08:17:11;21.10;80.10
32787;DHT22;19139;49.372;8.580;2023-04-25T08:19:37;21.10;80.10
32787;DHT22;19139;49.372;8.580;2023-04-25T08:22:04;21.10;80.10
32787;DHT22;19139;49.372;8.580;2023-04-25T08:24:31;21.10;80.10
32787;DHT22;19139;49.372;8.580;2023-04-25T08:26:57;21.20;80.20
32787;DHT22;19139;49.372;8.580;2023-04-25T08:29:25;21.20;80.10
32787;DHT22;19139;49.372;8.580;2023-04-25T08:31:52;21.10;80.10
32787;DHT22;19139;49.372;8.580;2023-04-25T08:34:22;21.20;80.10
32787;DHT22;19139;49.372;8.580;2023-04-25T08:36:48;21.20;80.10
32787;DHT22;19139;49.372;8.580;2023-04-25T08:39:15;21.20;80.10
32787;DHT22;19139;49.372;8.580;2023-04-25T08:41:42;21.20;80.10
32787;DHT22;19139;49.372;8.580;2023-04-25T08:44:10;21.20;80.10
32787;DHT22;19139;49.372;8.580;2023-04-25T08:46:40;21.20;80.10
32787;DHT22;19139;49.372;8.580;2023-04-25T08:49:08;21.20;80.10
32787;DHT22;19139;49.372;8.580;2023-04-25T08:51:40;21.20;80.10
32787;DHT22;19139;49.372;8.580;2023-04-25T08:54:11;21.20;80.10
32787;DHT22;19139;49.372;8.580;2023-04-25T08:56:44;21.20;80.10
32787;DHT22;19139;49.372;8.580;2023-04-25T08:59:12;21.20;80.10
32787;DHT22;19139;49.372;8.580;2023-04-25T09:01:39;21.20;80.10
32787;DHT22;19139;49.372;8.580;2023-04-25T09:04:06;21.20;80.10
32787;DHT22;19139;49.372;8.580;2023-04-25T09:06:37;21.20;80.10
32787;DHT22;19139;49.372;8.580;2023-04-25T09:09:06;21.20;80.10
32787;DHT22;19139;49.372;8.580;2023-04-25T09:11:38;21.20;80.10
32787;DHT22;19139;49.372;8.580;2023-04-25T09:14:18;21.20;80.10
32787;DHT22;19139;49.372;8.580;2023-04-25T09:16:58;21.30;80.30
32787;DHT22;19139;49.372;8.580;2023-04-25T09:19:37;21.30;80.10
32787;DHT22;19139;49.372;8.580;2023-04-25T09:22:08;21.30;80.10
32787;DHT22;19139;49.372;8.580;2023-04-25T09:24:42;21.30;80.10
32787;DHT22;19139;49.372;8.580;2023-04-25T09:27:18;21.30;80.10
32787;DHT22;19139;49.372;8.580;2023-04-25T09:29:44;21.30;80.10
32787;DHT22;19139;49.372;8.580;2023-04-25T09:32:19;21.30;80.10
32787;DHT22;19139;49.372;8.580;2023-04-25T09:34:48;21.30;80.10
32787;DHT22;19139;49.372;8.580;2023-04-25T09:37:20;21.30;80.10
32787;DHT22;19139;49.372;8.580;2023-04-25T09:39:49;21.30;80.10
32787;DHT22;19139;49.372;8.580;2023-04-25T09:42:17;21.30;80.10
32787;DHT22;19139;49.372;8.580;2023-04-25T09:44:45;21.30;80.10
32787;DHT22;19139;49.372;8.580;2023-04-25T09:47:15;21.30;80.10
32787;DHT22;19139;49.372;8.580;2023-04-25T09:49:49;21.30;80.10
32787;DHT22;19139;49.372;8.580;2023-04-25T09:52:23;21.30;80.10
32787;DHT22;19139;49.372;8.580;2023-04-25T09:54:54;21.30;80.10
32787;DHT22;19139;49.372;8.580;2023-04-25T09:57:26;21.30;80.10
32787;DHT22;19139;49.372;8.580;2023-04-25T10:00:00;21.30;80.10
32787;DHT22;19139;49.372;8.580;2023-04-25T10:02:27;21.30;80.10
32787;DHT22;19139;49.372;8.580;2023-04-25T10:04:55;21.30;80.20
32787;DHT22;19139;49.372;8.580;2023-04-25T10:07:24;21.30;80.10
32787;DHT22;19139;49.372;8.580;2023-04-25T10:10:00;21.40;80.20
32787;DHT22;19139;49.372;8.580;2023-04-25T10:12:34;21.30;80.10
32787;DHT22;19139;49.372;8.580;2023-04-25T10:15:01;21.30;80.40
32787;DHT22;19139;49.372;8.580;2023-04-25T10:17:29;21.30;80.50
32787;DHT22;19139;49.372;8.580;2023-04-25T10:19:56;21.30;80.70
32787;DHT22;19139;49.372;8.580;2023-04-25T10:22:41;21.40;81.20
32787;DHT22;19139;49.372;8.580;2023-04-25T10:25:08;21.40;81.20
32787;DHT22;19139;49.372;8.580;2023-04-25T10:27:36;21.40;81.10
32787;DHT22;19139;49.372;8.580;2023-04-25T10:30:10;21.40;81.20
32787;DHT22;19139;49.372;8.580;2023-04-25T10:32:43;21.40;81.10
32787;DHT22;19139;49.372;8.580;2023-04-25T10:35:17;21.40;81.10
32787;DHT22;19139;49.372;8.580;2023-04-25T10:38:13;21.40;81.10
32787;DHT22;19139;49.372;8.580;2023-04-25T10:40:40;21.40;81.30
32787;DHT22;19139;49.372;8.580;2023-04-25T10:45:57;21.40;81.10
32787;DHT22;19139;49.372;8.580;2023-04-25T10:48:30;21.40;81.10
32787;DHT22;19139;49.372;8.580;2023-04-25T10:51:10;21.50;81.20
32787;DHT22;19139;49.372;8.580;2023-04-25T10:53:44;21.50;81.10
32787;DHT22;19139;49.372;8.580;2023-04-25T10:58:44;21.50;81.10
32787;DHT22;19139;49.372;8.580;2023-04-25T11:01:12;21.50;81.10
32787;DHT22;19139;49.372;8.580;2023-04-25T11:03:43;21.40;81.20
32787;DHT22;19139;49.372;8.580;2023-04-25T11:08:50;21.40;81.10
32787;DHT22;19139;49.372;8.580;2023-04-25T11:11:21;21.40;81.10
32787;DHT22;19139;49.372;8.580;2023-04-25T11:13:53;21.40;81.10
32787;DHT22;19139;49.372;8.580;2023-04-25T11:16:24;21.40;81.10
32787;DHT22;19139;49.372;8.580;2023-04-25T11:18:57;21.40;81.10
32787;DHT22;19139;49.372;8.580;2023-04-25T11:21:25;21.40;81.10
32787;DHT22;19139;49.372;8.580;2023-04-25T11:23:53;21.40;81.00
32787;DHT22;19139;49.372;8.580;2023-04-25T11:26:22;21.40;81.00
32787;DHT22;19139;49.372;8.580;2023-04-25T11:28:49;21.40;80.90
32787;DHT22;19139;49.372;8.580;2023-04-25T11:31:15;21.40;80.90
32787;DHT22;19139;49.372;8.580;2023-04-25T11:33:42;21.40;80.90
32787;DHT22;19139;49.372;8.580;2023-04-25T11:36:09;21.40;80.90
32787;DHT22;19139;49.372;8.580;2023-04-25T11:38:36;21.40;81.00
32787;DHT22;19139;49.372;8.580;2023-04-25T11:41:03;21.40;80.90
32787;DHT22;19139;49.372;8.580;2023-04-25T11:43:29;21.40;80.90
32787;DHT22;19139;49.372;8.580;2023-04-25T11:45:56;21.40;80.90
32787;DHT22;19139;49.372;8.580;2023-04-25T11:48:23;21.40;80.90
32787;DHT22;19139;49.372;8.580;2023-04-25T11:50:53;21.50;80.90
32787;DHT22;19139;49.372;8.580;2023-04-25T11:53:20;21.50;80.90
32787;DHT22;19139;49.372;8.580;2023-04-25T11:55:47;21.50;80.90
32787;DHT22;19139;49.372;8.580;2023-04-25T11:58:14;21.50;80.90
32787;DHT22;19139;49.372;8.580;2023-04-25T12:00:42;21.50;80.90
32787;DHT22;19139;49.372;8.580;2023-04-25T12:03:17;21.50;80.90
32787;DHT22;19139;49.372;8.580;2023-04-25T12:05:45;21.50;80.90
32787;DHT22;19139;49.372;8.580;2023-04-25T12:08:14;21.50;80.90
32787;DHT22;19139;49.372;8.580;2023-04-25T12:10:42;21.50;80.90
32787;DHT22;19139;49.372;8.580;2023-04-25T12:13:22;21.50;80.90
32787;DHT22;19139;49.372;8.580;2023-04-25T12:15:49;21.50;80.90
32787;DHT22;19139;49.372;8.580;2023-04-25T12:18:20;21.40;80.90
32787;DHT22;19139;49.372;8.580;2023-04-25T12:20:53;21.50;80.90
32787;DHT22;19139;49.372;8.580;2023-04-25T12:23:29;21.50;80.90
32787;DHT22;19139;49.372;8.580;2023-04-25T12:25:57;21.40;80.80
32787;DHT22;19139;49.372;8.580;2023-04-25T12:28:24;21.40;80.90
32787;DHT22;19139;49.372;8.580;2023-04-25T12:31:05;21.50;80.90
32787;DHT22;19139;49.372;8.580;2023-04-25T12:33:36;21.40;80.80
32787;DHT22;19139;49.372;8.580;2023-04-25T12:36:04;21.40;80.80
32787;DHT22;19139;49.372;8.580;2023-04-25T12:38:40;21.50;80.90
32787;DHT22;19139;49.372;8.580;2023-04-25T12:41:08;21.50;80.90
32787;DHT22;19139;49.372;8.580;2023-04-25T12:43:35;21.50;80.80
32787;DHT22;19139;49.372;8.580;2023-04-25T12:46:01;21.50;80.80
32787;DHT22;19139;49.372;8.580;2023-04-25T12:48:28;21.50;80.90
32787;DHT22;19139;49.372;8.580;2023-04-25T12:50:55;21.50;80.80
32787;DHT22;19139;49.372;8.580;2023-04-25T12:53:23;21.50;80.80
32787;DHT22;19139;49.372;8.580;2023-04-25T12:55:52;21.50;80.90
32787;DHT22;19139;49.372;8.580;2023-04-25T12:58:21;21.50;80.80
32787;DHT22;19139;49.372;8.580;2023-04-25T13:00:49;21.50;80.80
32787;DHT22;19139;49.372;8.580;2023-04-25T13:03:16;21.50;80.80
32787;DHT22;19139;49.372;8.580;2023-04-25T13:05:44;21.50;80.80
32787;DHT22;19139;49.372;8.580;2023-04-25T13:08:11;21.50;80.80
32787;DHT22;19139;49.372;8.580;2023-04-25T13:10:37;21.50;80.80
32787;DHT22;19139;49.372;8.580;2023-04-25T13:13:10;21.50;80.80
32787;DHT22;19139;49.372;8.580;2023-04-25T13:15:41;21.50;80.80
32787;DHT22;19139;49.372;8.580;2023-04-25T13:18:13;21.60;80.90
32787;DHT22;19139;49.372;8.580;2023-04-25T13:20:44;21.50;80.80
32787;DHT22;19139;49.372;8.580;2023-04-25T13:23:12;21.50;80.90
32787;DHT22;19139;49.372;8.580;2023-04-25T13:25:43;21.50;80.80
32787;DHT22;19139;49.372;8.580;2023-04-25T13:28:10;21.60;80.90
32787;DHT22;19139;49.372;8.580;2023-04-25T13:30:42;21.60;80.90
32787;DHT22;19139;49.372;8.580;2023-04-25T13:33:14;21.60;80.80
32787;DHT22;19139;49.372;8.580;2023-04-25T13:35:41;21.50;80.80
32787;DHT22;19139;49.372;8.580;2023-04-25T13:38:08;21.50;80.80
32787;DHT22;19139;49.372;8.580;2023-04-25T13:40:40;21.60;80.90
32787;DHT22;19139;49.372;8.580;2023-04-25T13:43:06;21.60;80.90
32787;DHT22;19139;49.372;8.580;2023-04-25T13:45:33;21.50;80.80
32787;DHT22;19139;49.372;8.580;2023-04-25T13:48:05;21.60;80.90
32787;DHT22;19139;49.372;8.580;2023-04-25T13:50:32;21.60;80.90
32787;DHT22;19139;49.372;8.580;2023-04-25T13:52:58;21.60;80.90
32787;DHT22;19139;49.372;8.580;2023-04-25T13:55:25;21.60;80.90
32787;DHT22;19139;49.372;8.580;2023-04-25T13:57:52;21.60;80.90
32787;DHT22;19139;49.372;8.580;2023-04-25T14:00:19;21.60;80.90
32787;DHT22;19139;49.372;8.580;2023-04-25T14:02:46;21.60;80.80
32787;DHT22;19139;49.372;8.580;2023-04-25T14:05:16;21.60;80.80
32787;DHT22;19139;49.372;8.580;2023-04-25T14:07:42;21.60;80.80
32787;DHT22;19139;49.372;8.580;2023-04-25T14:10:09;21.60;81.70
32787;DHT22;19139;49.372;8.580;2023-04-25T14:12:41;21.60;80.90
32787;DHT22;19139;49.372;8.580;2023-04-25T14:15:08;21.50;80.80
32787;DHT22;19139;49.372;8.580;2023-04-25T14:17:39;21.50;80.80
32787;DHT22;19139;49.372;8.580;2023-04-25T14:20:11;21.50;81.60
32787;DHT22;19139;49.372;8.580;2023-04-25T14:22:42;21.60;80.90
32787;DHT22;19139;49.372;8.580;2023-04-25T14:25:15;21.60;80.80
32787;DHT22;19139;49.372;8.580;2023-04-25T14:27:41;21.50;80.80
32787;DHT22;19139;49.372;8.580;2023-04-25T14:30:08;21.60;80.80
32787;DHT22;19139;49.372;8.580;2023-04-25T14:32:35;21.50;80.90
32787;DHT22;19139;49.372;8.580;2023-04-25T14:35:02;21.50;80.80
32787;DHT22;19139;49.372;8.580;2023-04-25T14:37:29;21.50;80.70
32787;DHT22;19139;49.372;8.580;2023-04-25T14:39:55;21.60;80.90
32787;DHT22;19139;49.372;8.580;2023-04-25T14:42:22;21.50;80.80
32787;DHT22;19139;49.372;8.580;2023-04-25T14:44:49;21.50;80.70
32787;DHT22;19139;49.372;8.580;2023-04-25T14:47:16;21.60;80.80
32787;DHT22;19139;49.372;8.580;2023-04-25T14:49:43;21.50;80.80
32787;DHT22;19139;49.372;8.580;2023-04-25T14:52:15;21.60;80.80
32787;DHT22;19139;49.372;8.580;2023-04-25T14:54:47;21.50;80.70
32787;DHT22;19139;49.372;8.580;2023-04-25T14:57:14;21.50;80.70
32787;DHT22;19139;49.372;8.580;2023-04-25T14:59:40;21.60;80.70
32787;DHT22;19139;49.372;8.580;2023-04-25T15:02:07;21.60;80.70
32787;DHT22;19139;49.372;8.580;2023-04-25T15:04:34;21.60;80.70
32787;DHT22;19139;49.372;8.580;2023-04-25T15:07:01;21.60;80.70
32787;DHT22;19139;49.372;8.580;2023-04-25T15:09:27;21.60;80.70
32787;DHT22;19139;49.372;8.580;2023-04-25T15:11:55;21.60;80.70
32787;DHT22;19139;49.372;8.580;2023-04-25T15:14:26;21.60;80.70
32787;DHT22;19139;49.372;8.580;2023-04-25T15:16:58;21.60;80.70
32787;DHT22;19139;49.372;8.580;2023-04-25T15:19:25;21.60;80.70
32787;DHT22;19139;49.372;8.580;2023-04-25T15:21:52;21.60;80.70
32787;DHT22;19139;49.372;8.580;2023-04-25T15:24:18;21.60;80.70
32787;DHT22;19139;49.372;8.580;2023-04-25T15:26:45;21.60;80.70
32787;DHT22;19139;49.372;8.580;2023-04-25T15:29:17;21.60;80.70
32787;DHT22;19139;49.372;8.580;2023-04-25T15:31:43;21.60;80.70
32787;DHT22;19139;49.372;8.580;2023-04-25T15:34:10;21.60;80.70
32787;DHT22;19139;49.372;8.580;2023-04-25T15:36:37;21.60;80.70
32787;DHT22;19139;49.372;8.580;2023-04-25T15:39:04;21.60;80.70
32787;DHT22;19139;49.372;8.580;2023-04-25T15:41:30;21.60;80.60
32787;DHT22;19139;49.372;8.580;2023-04-25T15:43:59;21.60;80.70
32787;DHT22;19139;49.372;8.580;2023-04-25T15:46:31;21.60;80.60
32787;DHT22;19139;49.372;8.580;2023-04-25T15:49:03;21.60;80.60